createdAt,value
2018-02-08T00:00:43.673Z,999.82
2018-02-08T00:01:49.674Z,999.84
2018-02-08T00:02:55.616Z,999.80
2018-02-08T00:04:01.115Z,999.85
2018-02-08T00:05:07.609Z,999.84
2018-02-08T00:06:13.620Z,999.91
2018-02-08T00:07:19.587Z,999.90
2018-02-08T00:08:25.578Z,999.93
2018-02-08T00:09:31.592Z,999.90
2018-02-08T00:10:37.571Z,999.93
2018-02-08T00:11:43.541Z,999.96
2018-02-08T00:12:49.553Z,999.94
2018-02-08T00:13:55.538Z,999.94
2018-02-08T00:15:01.519Z,999.94
2018-02-08T00:16:07.514Z,999.97
2018-02-08T00:17:13.475Z,999.97
2018-02-08T00:18:19.461Z,999.99
2018-02-08T00:19:25.454Z,999.97
2018-02-08T00:20:31.452Z,999.97
2018-02-08T00:21:37.436Z,999.95
2018-02-08T00:22:42.928Z,999.96
2018-02-08T00:23:49.391Z,999.90
2018-02-08T00:24:54.886Z,999.97
2018-02-08T00:26:01.370Z,999.93
2018-02-08T00:27:07.380Z,1000.02
2018-02-08T00:28:13.340Z,1000.01
2018-02-08T00:29:19.343Z,1000.06
2018-02-08T00:30:25.329Z,1000.00
2018-02-08T00:31:31.288Z,1000.03
2018-02-08T00:32:37.258Z,1000.05
2018-02-08T00:33:43.239Z,1000.05
2018-02-08T00:34:49.217Z,1000.05
2018-02-08T00:35:54.717Z,1000.02
2018-02-08T00:37:01.204Z,1000.02
2018-02-08T00:38:07.161Z,1000.02
2018-02-08T00:39:12.642Z,1000.05
2018-02-08T00:40:18.665Z,1000.05
2018-02-08T00:41:24.594Z,1000.04
2018-02-08T00:42:30.596Z,1000.00
2018-02-08T00:43:37.057Z,1000.01
2018-02-08T00:44:43.063Z,1000.00
2018-02-08T00:45:49.039Z,999.99
2018-02-08T00:46:54.505Z,1000.00
2018-02-08T00:48:00.467Z,1000.04
2018-02-08T00:49:06.470Z,1000.01
2018-02-08T00:50:13.913Z,999.98
2018-02-08T00:51:18.925Z,1000.04
2018-02-08T00:52:24.892Z,1000.01
2018-02-08T00:53:30.389Z,1000.08
2018-02-08T00:54:36.330Z,1000.06
2018-02-08T00:55:42.324Z,1000.05
2018-02-08T00:56:48.776Z,1000.08
2018-02-08T00:57:54.261Z,1000.05
2018-02-08T00:59:00.725Z,1000.05
2018-02-08T01:00:06.221Z,1000.07
2018-02-08T01:01:12.718Z,1000.12
2018-02-08T01:02:18.159Z,1000.10
2018-02-08T01:03:24.641Z,1000.15
2018-02-08T01:04:30.604Z,1000.14
2018-02-08T01:05:36.606Z,1000.13
2018-02-08T01:06:42.560Z,1000.09
2018-02-08T01:07:48.061Z,1000.04
2018-02-08T01:08:54.049Z,1000.03
2018-02-08T01:09:59.991Z,1000.04
2018-02-08T01:11:05.986Z,1000.08
2018-02-08T01:12:11.973Z,1000.06
2018-02-08T01:13:17.915Z,1000.08
2018-02-08T01:14:23.883Z,1000.05
2018-02-08T01:15:29.882Z,1000.08
2018-02-08T01:16:35.833Z,1000.08
2018-02-08T01:17:42.317Z,1000.08
2018-02-08T01:18:47.786Z,1000.07
2018-02-08T01:19:53.805Z,1000.08
2018-02-08T01:20:59.754Z,1000.14
2018-02-08T01:22:05.703Z,1000.10
2018-02-08T01:23:11.660Z,1000.06
2018-02-08T01:24:18.136Z,1000.11
2018-02-08T01:25:24.167Z,1000.11
2018-02-08T01:26:30.625Z,1000.14
2018-02-08T01:27:36.049Z,1000.15
2018-02-08T01:28:42.015Z,1000.14
2018-02-08T01:29:47.984Z,1000.19
2018-02-08T01:30:53.997Z,1000.18
2018-02-08T01:31:59.436Z,1000.17
2018-02-08T01:33:05.892Z,1000.17
2018-02-08T01:34:11.381Z,1000.13
2018-02-08T01:35:17.342Z,1000.16
2018-02-08T01:36:23.872Z,1000.21
2018-02-08T01:37:29.776Z,1000.20
2018-02-08T01:38:35.737Z,1000.19
2018-02-08T01:39:41.746Z,1000.15
2018-02-08T01:40:47.717Z,1000.19
2018-02-08T01:41:53.156Z,1000.13
2018-02-08T01:42:59.623Z,1000.20
2018-02-08T01:44:05.184Z,1000.14
2018-02-08T01:45:12.088Z,1000.14
2018-02-08T01:46:17.585Z,1000.17
2018-02-08T01:47:23.535Z,1000.17
2018-02-08T01:48:29.479Z,1000.13
2018-02-08T01:49:34.974Z,1000.13
2018-02-08T01:50:40.995Z,1000.19
2018-02-08T01:51:46.909Z,1000.19
2018-02-08T01:52:53.385Z,1000.20
2018-02-08T01:53:58.930Z,1000.23
2018-02-08T01:55:05.333Z,1000.20
2018-02-08T01:56:10.828Z,1000.21
2018-02-08T01:57:17.283Z,1000.17
2018-02-08T01:58:22.762Z,1000.21
2018-02-08T01:59:28.730Z,1000.21
2018-02-08T02:00:34.738Z,1000.14
2018-02-08T02:01:41.177Z,1000.16
2018-02-08T02:02:46.648Z,1000.12
2018-02-08T02:03:52.641Z,1000.10
2018-02-08T02:04:59.101Z,1000.15
2018-02-08T02:06:05.126Z,1000.14
2018-02-08T02:07:11.049Z,1000.11
2018-02-08T02:08:17.023Z,1000.11
2018-02-08T02:09:22.519Z,1000.11
2018-02-08T02:10:28.495Z,1000.12
2018-02-08T02:11:34.981Z,1000.11
2018-02-08T02:12:40.938Z,1000.12
2018-02-08T02:13:46.928Z,1000.09
2018-02-08T02:14:53.385Z,1000.10
2018-02-08T02:15:58.946Z,1000.08
2018-02-08T02:17:04.869Z,1000.06
2018-02-08T02:18:10.336Z,1000.06
2018-02-08T02:19:16.313Z,1000.01
2018-02-08T02:20:22.796Z,999.99
2018-02-08T02:21:28.295Z,999.98
2018-02-08T02:22:34.257Z,999.97
2018-02-08T02:23:40.738Z,999.99
2018-02-08T02:24:46.201Z,1000.03
2018-02-08T02:25:52.196Z,999.96
2018-02-08T02:26:58.673Z,999.98
2018-02-08T02:28:04.129Z,1000.00
2018-02-08T02:29:10.592Z,999.97
2018-02-08T02:30:16.158Z,1000.00
2018-02-08T02:31:22.583Z,1000.03
2018-02-08T02:32:28.535Z,1000.05
2018-02-08T02:33:34.518Z,1000.04
2018-02-08T02:34:40.482Z,1000.07
2018-02-08T02:35:46.469Z,1000.07
2018-02-08T02:36:52.416Z,999.99
2018-02-08T02:37:58.387Z,1000.03
2018-02-08T02:39:04.370Z,1000.03
2018-02-08T02:40:10.354Z,1000.05
2018-02-08T02:41:15.829Z,1000.08
2018-02-08T02:42:22.268Z,1000.06
2018-02-08T02:43:27.753Z,1000.06
2018-02-08T02:44:33.732Z,1000.08
2018-02-08T02:45:39.708Z,1000.04
2018-02-08T02:46:46.174Z,1000.09
2018-02-08T02:47:51.636Z,1000.10
2018-02-08T02:48:58.139Z,1000.08
2018-02-08T02:50:05.048Z,1000.09
2018-02-08T02:51:10.062Z,1000.09
2018-02-08T02:52:15.978Z,1000.11
2018-02-08T02:53:21.979Z,1000.11
2018-02-08T02:54:27.415Z,1000.07
2018-02-08T02:55:33.904Z,1000.08
2018-02-08T02:56:39.841Z,1000.12
2018-02-08T02:57:45.307Z,1000.11
2018-02-08T02:58:51.788Z,1000.15
2018-02-08T02:59:57.228Z,1000.17
2018-02-08T03:01:03.217Z,1000.19
2018-02-08T03:02:09.666Z,1000.17
2018-02-08T03:03:15.611Z,1000.14
2018-02-08T03:04:21.078Z,1000.16
2018-02-08T03:05:27.064Z,1000.18
2018-02-08T03:06:33.508Z,1000.18
2018-02-08T03:07:39.452Z,1000.17
2018-02-08T03:08:45.403Z,1000.20
2018-02-08T03:09:50.877Z,1000.18
2018-02-08T03:10:57.872Z,1000.17
2018-02-08T03:12:02.829Z,1000.17
2018-02-08T03:13:08.756Z,1000.17
2018-02-08T03:14:14.716Z,1000.18
2018-02-08T03:15:21.179Z,1000.13
2018-02-08T03:16:28.164Z,1000.18
2018-02-08T03:17:32.574Z,1000.15
2018-02-08T03:18:39.024Z,1000.14
2018-02-08T03:19:44.493Z,1000.18
2018-02-08T03:20:50.946Z,1000.15
2018-02-08T03:21:56.938Z,1000.15
2018-02-08T03:23:02.366Z,1000.15
2018-02-08T03:24:08.327Z,1000.15
2018-02-08T03:25:14.275Z,1000.13
2018-02-08T03:26:20.747Z,1000.17
2018-02-08T03:27:26.672Z,1000.16
2018-02-08T03:28:32.128Z,1000.13
2018-02-08T03:29:38.158Z,1000.13
2018-02-08T03:30:44.042Z,1000.19
2018-02-08T03:31:50.007Z,1000.17
2018-02-08T03:32:55.946Z,1000.17
2018-02-08T03:34:03.410Z,1000.13
2018-02-08T03:35:08.383Z,1000.14
2018-02-08T03:36:13.830Z,1000.17
2018-02-08T03:37:19.771Z,1000.16
2018-02-08T03:38:26.910Z,1000.17
2018-02-08T03:39:32.176Z,1000.22
2018-02-08T03:40:38.148Z,1000.21
2018-02-08T03:41:44.178Z,1000.23
2018-02-08T03:42:49.513Z,1000.24
2018-02-08T03:43:55.459Z,1000.24
2018-02-08T03:45:01.912Z,1000.23
2018-02-08T03:46:07.381Z,1000.25
2018-02-08T03:47:13.304Z,1000.28
2018-02-08T03:48:19.740Z,1000.27
2018-02-08T03:49:25.194Z,1000.24
2018-02-08T03:50:31.131Z,1000.26
2018-02-08T03:51:37.126Z,1000.26
2018-02-08T03:52:43.034Z,1000.22
2018-02-08T03:53:48.966Z,1000.23
2018-02-08T03:54:55.460Z,1000.25
2018-02-08T03:56:02.359Z,1000.26
2018-02-08T03:57:08.307Z,1000.26
2018-02-08T03:58:13.241Z,1000.25
2018-02-08T03:59:19.181Z,1000.27
2018-02-08T04:00:24.627Z,1000.26
2018-02-08T04:01:30.596Z,1000.27
2018-02-08T04:02:37.015Z,1000.28
2018-02-08T04:03:42.448Z,1000.26
2018-02-08T04:04:48.407Z,1000.30
2018-02-08T04:05:54.336Z,1000.28
2018-02-08T04:07:00.800Z,1000.25
2018-02-08T04:08:06.202Z,1000.29
2018-02-08T04:09:12.144Z,1000.27
2018-02-08T04:10:18.177Z,1000.36
2018-02-08T04:11:24.550Z,1000.36
2018-02-08T04:12:29.958Z,1000.40
2018-02-08T04:13:36.935Z,1000.39
2018-02-08T04:14:42.360Z,1000.49
2018-02-08T04:15:47.765Z,1000.50
2018-02-08T04:16:54.218Z,1000.50
2018-02-08T04:17:59.631Z,1000.52
2018-02-08T04:19:06.152Z,1000.51
2018-02-08T04:20:12.057Z,1000.51
2018-02-08T04:21:17.467Z,1000.54
2018-02-08T04:22:23.375Z,1000.58
2018-02-08T04:23:29.297Z,1000.52
2018-02-08T04:24:35.265Z,1000.60
2018-02-08T04:25:41.181Z,1000.66
2018-02-08T04:26:47.169Z,1000.59
2018-02-08T04:27:53.032Z,1000.64
2018-02-08T04:28:58.965Z,1000.64
2018-02-08T04:30:04.896Z,1000.62
2018-02-08T04:31:11.360Z,1000.66
2018-02-08T04:32:17.247Z,1000.68
2018-02-08T04:33:23.164Z,1000.67
2018-02-08T04:34:28.633Z,1000.68
2018-02-08T04:35:35.034Z,1000.67
2018-02-08T04:36:40.496Z,1000.70
2018-02-08T04:37:46.894Z,1000.71
2018-02-08T04:38:52.328Z,1000.76
2018-02-08T04:39:58.250Z,1000.74
2018-02-08T04:41:04.182Z,1000.78
2018-02-08T04:42:10.638Z,1000.77
2018-02-08T04:43:16.027Z,1000.82
2018-02-08T04:44:22.471Z,1000.82
2018-02-08T04:45:28.389Z,1000.83
2018-02-08T04:46:33.831Z,1000.84
2018-02-08T04:47:40.241Z,1000.91
2018-02-08T04:48:46.176Z,1000.91
2018-02-08T04:49:51.603Z,1000.90
2018-02-08T04:50:58.029Z,1000.94
2018-02-08T04:52:03.970Z,1000.95
2018-02-08T04:53:09.877Z,1000.97
2018-02-08T04:54:15.317Z,1000.98
2018-02-08T04:55:21.245Z,1000.99
2018-02-08T04:56:27.168Z,1000.95
2018-02-08T04:57:33.125Z,1000.98
2018-02-08T04:58:40.526Z,1000.98
2018-02-08T04:59:45.475Z,1001.00
2018-02-08T05:00:50.913Z,1001.01
2018-02-08T05:01:56.836Z,1000.99
2018-02-08T05:03:04.239Z,1001.04
2018-02-08T05:04:09.192Z,1001.05
2018-02-08T05:05:14.597Z,1001.04
2018-02-08T05:06:21.026Z,1001.06
2018-02-08T05:07:26.499Z,1001.06
2018-02-08T05:08:32.890Z,1001.07
2018-02-08T05:09:38.819Z,1001.11
2018-02-08T05:10:44.263Z,1001.11
2018-02-08T05:11:50.704Z,1001.12
2018-02-08T05:12:56.121Z,1001.19
2018-02-08T05:14:02.098Z,1001.16
2018-02-08T05:15:07.970Z,1001.16
2018-02-08T05:16:13.903Z,1001.15
2018-02-08T05:17:20.354Z,1001.13
2018-02-08T05:18:25.757Z,1001.12
2018-02-08T05:19:31.696Z,1001.17
2018-02-08T05:20:37.648Z,1001.16
2018-02-08T05:21:44.207Z,1001.19
2018-02-08T05:22:49.518Z,1001.20
2018-02-08T05:23:55.426Z,1001.13
2018-02-08T05:25:02.346Z,1001.15
2018-02-08T05:26:07.798Z,1001.16
2018-02-08T05:27:13.234Z,1001.16
2018-02-08T05:28:19.207Z,1001.16
2018-02-08T05:29:25.132Z,1001.16
2018-02-08T05:30:31.032Z,1001.20
2018-02-08T05:31:37.464Z,1001.16
2018-02-08T05:32:42.884Z,1001.20
2018-02-08T05:33:48.810Z,1001.20
2018-02-08T05:34:54.756Z,1001.22
2018-02-08T05:36:00.690Z,1001.22
2018-02-08T05:37:06.656Z,1001.22
2018-02-08T05:38:13.049Z,1001.22
2018-02-08T05:39:18.964Z,1001.21
2018-02-08T05:40:24.418Z,1001.20
2018-02-08T05:41:30.843Z,1001.22
2018-02-08T05:42:36.267Z,1001.20
2018-02-08T05:43:42.695Z,1001.22
2018-02-08T05:44:48.104Z,1001.24
2018-02-08T05:45:54.067Z,1001.28
2018-02-08T05:47:00.494Z,1001.27
2018-02-08T05:48:05.965Z,1001.25
2018-02-08T05:49:12.331Z,1001.29
2018-02-08T05:50:17.774Z,1001.26
2018-02-08T05:51:24.212Z,1001.31
2018-02-08T05:52:30.159Z,1001.32
2018-02-08T05:53:35.563Z,1001.36
2018-02-08T05:54:41.972Z,1001.35
2018-02-08T05:55:47.442Z,1001.39
2018-02-08T05:56:53.358Z,1001.43
2018-02-08T05:57:59.757Z,1001.38
2018-02-08T05:59:05.671Z,1001.41
2018-02-08T06:00:11.605Z,1001.41
2018-02-08T06:01:17.532Z,1001.42
2018-02-08T06:02:23.487Z,1001.41
2018-02-08T06:03:29.405Z,1001.42
2018-02-08T06:04:34.793Z,1001.44
2018-02-08T06:05:41.221Z,1001.52
2018-02-08T06:06:46.704Z,1001.50
2018-02-08T06:07:53.069Z,1001.49
2018-02-08T06:08:58.482Z,1001.53
2018-02-08T06:10:04.392Z,1001.55
2018-02-08T06:11:10.295Z,1001.53
2018-02-08T06:12:16.239Z,1001.54
2018-02-08T06:13:22.629Z,1001.55
2018-02-08T06:14:28.565Z,1001.53
2018-02-08T06:15:33.951Z,1001.55
2018-02-08T06:16:40.395Z,1001.55
2018-02-08T06:17:45.801Z,1001.59
2018-02-08T06:18:51.687Z,1001.60
2018-02-08T06:19:58.117Z,1001.62
2018-02-08T06:21:03.530Z,1001.61
2018-02-08T06:22:10.017Z,1001.65
2018-02-08T06:23:15.371Z,1001.66
2018-02-08T06:24:21.788Z,1001.65
2018-02-08T06:25:27.155Z,1001.62
2018-02-08T06:26:33.583Z,1001.65
2018-02-08T06:27:38.997Z,1001.69
2018-02-08T06:28:44.892Z,1001.65
2018-02-08T06:29:51.317Z,1001.67
2018-02-08T06:30:57.216Z,1001.66
2018-02-08T06:32:03.146Z,1001.67
2018-02-08T06:33:09.056Z,1001.65
2018-02-08T06:34:14.954Z,1001.65
2018-02-08T06:35:20.862Z,1001.68
2018-02-08T06:36:26.801Z,1001.66
2018-02-08T06:37:32.709Z,1001.69
2018-02-08T06:38:38.592Z,1001.64
2018-02-08T06:39:44.519Z,1001.71
2018-02-08T06:40:50.434Z,1001.68
2018-02-08T06:41:56.337Z,1001.72
2018-02-08T06:43:01.772Z,1001.74
2018-02-08T06:44:08.178Z,1001.72
2018-02-08T06:45:14.074Z,1001.73
2018-02-08T06:46:19.999Z,1001.73
2018-02-08T06:47:25.933Z,1001.69
2018-02-08T06:48:31.538Z,1001.76
2018-02-08T06:49:37.734Z,1001.78
2018-02-08T06:50:43.179Z,1001.75
2018-02-08T06:51:49.093Z,1001.76
2018-02-08T06:52:55.506Z,1001.76
2018-02-08T06:54:00.929Z,1001.78
2018-02-08T06:55:06.825Z,1001.82
2018-02-08T06:56:13.247Z,1001.88
2018-02-08T06:57:19.170Z,1001.88
2018-02-08T06:58:24.613Z,1001.86
2018-02-08T06:59:30.497Z,1001.87
2018-02-08T07:00:36.916Z,1001.85
2018-02-08T07:01:42.349Z,1001.91
2018-02-08T07:02:48.762Z,1001.92
2018-02-08T07:03:54.705Z,1001.95
2018-02-08T07:05:00.600Z,1001.93
2018-02-08T07:06:06.537Z,1001.94
2018-02-08T07:07:11.951Z,1002.00
2018-02-08T07:08:18.375Z,1001.99
2018-02-08T07:09:23.828Z,1002.02
2018-02-08T07:10:30.222Z,1002.02
2018-02-08T07:11:36.151Z,1001.98
2018-02-08T07:12:41.582Z,1001.98
2018-02-08T07:13:48.028Z,1002.02
2018-02-08T07:14:53.932Z,1002.07
2018-02-08T07:15:59.860Z,1002.07
2018-02-08T07:17:05.281Z,1002.04
2018-02-08T07:18:11.714Z,1002.06
2018-02-08T07:19:17.675Z,1002.07
2018-02-08T07:20:23.557Z,1002.08
2018-02-08T07:21:29.496Z,1002.09
2018-02-08T07:22:35.428Z,1002.07
2018-02-08T07:23:40.854Z,1002.13
2018-02-08T07:24:46.815Z,1002.15
2018-02-08T07:25:53.207Z,1002.14
2018-02-08T07:26:59.186Z,1002.17
2018-02-08T07:28:05.173Z,1002.21
2018-02-08T07:29:10.540Z,1002.19
2018-02-08T07:30:16.434Z,1002.19
2018-02-08T07:31:22.857Z,1002.22
2018-02-08T07:32:29.797Z,1002.23
2018-02-08T07:33:34.736Z,1002.21
2018-02-08T07:34:40.681Z,1002.21
2018-02-08T07:35:46.591Z,1002.20
2018-02-08T07:36:52.524Z,1002.21
2018-02-08T07:37:58.484Z,1002.25
2018-02-08T07:39:04.412Z,1002.24
2018-02-08T07:40:10.371Z,1002.25
2018-02-08T07:41:16.289Z,1002.27
2018-02-08T07:42:22.228Z,1002.25
2018-02-08T07:43:28.167Z,1002.25
2018-02-08T07:44:35.168Z,1002.25
2018-02-08T07:45:41.069Z,1002.19
2018-02-08T07:46:46.982Z,1002.22
2018-02-08T07:47:51.936Z,1002.20
2018-02-08T07:48:57.890Z,1002.18
2018-02-08T07:50:03.353Z,1002.25
2018-02-08T07:51:09.756Z,1002.26
2018-02-08T07:52:15.704Z,1002.25
2018-02-08T07:53:21.760Z,1002.26
2018-02-08T07:54:27.586Z,1002.25
2018-02-08T07:55:33.209Z,1002.31
2018-02-08T07:56:39.482Z,1002.30
2018-02-08T07:57:44.951Z,1002.31
2018-02-08T07:58:50.891Z,1002.33
2018-02-08T07:59:57.338Z,1002.34
2018-02-08T08:01:02.795Z,1002.41
2018-02-08T08:02:09.218Z,1002.40
2018-02-08T08:03:14.679Z,1002.40
2018-02-08T08:04:21.153Z,1002.40
2018-02-08T08:05:27.144Z,1002.36
2018-02-08T08:06:33.058Z,1002.37
2018-02-08T08:07:39.483Z,1002.36
2018-02-08T08:08:44.929Z,1002.35
2018-02-08T08:09:50.390Z,1002.37
2018-02-08T08:10:56.884Z,1002.37
2018-02-08T08:12:02.298Z,1002.36
2018-02-08T08:13:08.759Z,1002.37
2018-02-08T08:14:14.214Z,1002.35
2018-02-08T08:15:20.180Z,1002.32
2018-02-08T08:16:26.148Z,1002.30
2018-02-08T08:17:32.593Z,1002.30
2018-02-08T08:18:38.559Z,1002.32
2018-02-08T08:19:44.507Z,1002.29
2018-02-08T08:20:50.484Z,1002.31
2018-02-08T08:21:56.464Z,1002.34
2018-02-08T08:23:01.910Z,1002.34
2018-02-08T08:24:08.370Z,1002.33
2018-02-08T08:25:13.846Z,1002.36
2018-02-08T08:26:19.803Z,1002.40
2018-02-08T08:27:26.317Z,1002.38
2018-02-08T08:28:32.244Z,1002.36
2018-02-08T08:29:38.218Z,1002.37
2018-02-08T08:30:44.164Z,1002.37
2018-02-08T08:31:50.163Z,1002.34
2018-02-08T08:32:55.594Z,1002.34
2018-02-08T08:34:02.061Z,1002.34
2018-02-08T08:35:08.035Z,1002.35
2018-02-08T08:36:14.000Z,1002.33
2018-02-08T08:37:19.994Z,1002.32
2018-02-08T08:38:25.939Z,1002.36
2018-02-08T08:39:31.538Z,1002.36
2018-02-08T08:40:37.888Z,1002.36
2018-02-08T08:41:43.357Z,1002.36
2018-02-08T08:42:49.842Z,1002.36
2018-02-08T08:43:55.813Z,1002.40
2018-02-08T08:45:01.799Z,1002.41
2018-02-08T08:46:07.759Z,1002.40
2018-02-08T08:47:13.772Z,1002.39
2018-02-08T08:48:19.715Z,1002.38
2018-02-08T08:49:25.688Z,1002.42
2018-02-08T08:50:31.694Z,1002.34
2018-02-08T08:51:37.644Z,1002.38
2018-02-08T08:52:43.196Z,1002.41
2018-02-08T08:53:49.678Z,1002.47
2018-02-08T08:54:55.177Z,1002.49
2018-02-08T08:56:01.562Z,1002.49
2018-02-08T08:57:07.041Z,1002.56
2018-02-08T08:58:13.051Z,1002.56
2018-02-08T08:59:19.604Z,1002.60
2018-02-08T09:00:24.995Z,1002.59
2018-02-08T09:01:31.514Z,1002.59
2018-02-08T09:02:37.486Z,1002.58
2018-02-08T09:03:43.441Z,1002.60
2018-02-08T09:04:49.435Z,1002.63
2018-02-08T09:05:54.914Z,1002.68
2018-02-08T09:07:00.899Z,1002.75
2018-02-08T09:08:07.468Z,1002.68
2018-02-08T09:09:13.384Z,1002.71
2018-02-08T09:11:25.362Z,1002.69
2018-02-08T09:12:30.870Z,1002.63
2018-02-08T09:13:36.891Z,1002.71
2018-02-08T09:14:42.864Z,1002.66
2018-02-08T09:15:49.353Z,1002.67
2018-02-08T09:16:55.362Z,1002.68
2018-02-08T09:18:00.877Z,1002.61
2018-02-08T09:19:06.905Z,1002.69
2018-02-08T09:20:12.899Z,1002.66
2018-02-08T09:21:19.398Z,1002.68
2018-02-08T09:22:25.429Z,1002.69
2018-02-08T09:23:31.484Z,1002.70
2018-02-08T09:24:37.002Z,1002.69
2018-02-08T09:25:43.484Z,1002.72
2018-02-08T09:26:49.519Z,1002.72
2018-02-08T09:27:55.556Z,1002.69
2018-02-08T09:29:01.617Z,1002.69
2018-02-08T09:30:07.623Z,1002.73
2018-02-08T09:31:13.649Z,1002.72
2018-02-08T09:32:19.761Z,1002.74
2018-02-08T09:33:25.219Z,1002.75
2018-02-08T09:34:31.768Z,1002.73
2018-02-08T09:35:37.296Z,1002.70
2018-02-08T09:36:43.325Z,1002.75
2018-02-08T09:37:49.879Z,1002.73
2018-02-08T09:38:56.002Z,1002.75
2018-02-08T09:40:02.465Z,1002.70
2018-02-08T09:41:08.504Z,1002.75
2018-02-08T09:42:13.542Z,1002.74
2018-02-08T09:43:20.096Z,1002.72
2018-02-08T09:44:25.646Z,1002.77
2018-02-08T09:45:32.164Z,1002.79
2018-02-08T09:46:37.729Z,1002.81
2018-02-08T09:47:44.256Z,1002.81
2018-02-08T09:48:49.809Z,1002.76
2018-02-08T09:49:55.872Z,1002.79
2018-02-08T09:51:02.437Z,1002.79
2018-02-08T09:52:07.946Z,1002.75
2018-02-08T09:53:13.994Z,1002.80
2018-02-08T09:54:20.543Z,1002.77
2018-02-08T09:55:26.116Z,1002.76
2018-02-08T09:56:32.640Z,1002.79
2018-02-08T09:57:38.201Z,1002.81
2018-02-08T09:58:44.248Z,1002.78
2018-02-08T09:59:50.809Z,1002.77
2018-02-08T10:00:56.872Z,1002.76
2018-02-08T10:02:02.926Z,1002.80
2018-02-08T10:03:08.474Z,1002.79
2018-02-08T10:04:15.023Z,1002.77
2018-02-08T10:05:21.169Z,1002.80
2018-02-08T10:06:26.639Z,1002.81
2018-02-08T10:07:33.203Z,1002.83
2018-02-08T10:08:39.254Z,1002.88
2018-02-08T10:09:44.808Z,1002.87
2018-02-08T10:10:51.403Z,1002.93
2018-02-08T10:11:56.926Z,1002.91
2018-02-08T10:13:02.999Z,1002.91
2018-02-08T10:14:10.555Z,1002.87
2018-02-08T10:15:15.117Z,1002.90
2018-02-08T10:16:21.695Z,1002.92
2018-02-08T10:17:27.234Z,1002.92
2018-02-08T10:18:33.788Z,1002.91
2018-02-08T10:19:39.849Z,1002.94
2018-02-08T10:20:46.005Z,1002.93
2018-02-08T10:21:51.982Z,1002.94
2018-02-08T10:22:57.544Z,1002.94
2018-02-08T10:24:04.098Z,1002.92
2018-02-08T10:25:09.665Z,1002.93
2018-02-08T10:26:15.756Z,1002.95
2018-02-08T10:27:22.291Z,1002.91
2018-02-08T10:28:27.845Z,1002.92
2018-02-08T10:29:33.932Z,1002.89
2018-02-08T10:30:39.992Z,1002.86
2018-02-08T10:31:46.540Z,1002.89
2018-02-08T10:32:52.599Z,1002.87
2018-02-08T10:33:58.173Z,1002.92
2018-02-08T10:35:04.275Z,1002.95
2018-02-08T10:36:10.326Z,1002.88
2018-02-08T10:37:16.351Z,1002.89
2018-02-08T10:38:22.915Z,1002.85
2018-02-08T10:39:28.475Z,1002.85
2018-02-08T10:40:35.044Z,1002.84
2018-02-08T10:41:40.644Z,1002.84
2018-02-08T10:42:46.668Z,1002.86
2018-02-08T10:43:53.228Z,1002.85
2018-02-08T10:44:59.303Z,1002.80
2018-02-08T10:46:04.891Z,1002.81
2018-02-08T10:47:10.933Z,1002.82
2018-02-08T10:48:17.489Z,1002.83
2018-02-08T10:49:23.065Z,1002.84
2018-02-08T10:50:29.122Z,1002.82
2018-02-08T10:51:35.223Z,1002.80
2018-02-08T10:52:41.245Z,1002.88
2018-02-08T10:53:47.824Z,1002.82
2018-02-08T10:54:53.894Z,1002.85
2018-02-08T10:55:59.968Z,1002.86
2018-02-08T10:57:06.071Z,1002.85
2018-02-08T10:58:11.626Z,1002.85
2018-02-08T10:59:17.704Z,1002.84
2018-02-08T11:00:24.292Z,1002.87
2018-02-08T11:01:29.878Z,1002.85
2018-02-08T11:02:36.454Z,1002.86
2018-02-08T11:03:42.531Z,1002.85
2018-02-08T11:04:48.110Z,1002.83
2018-02-08T11:05:54.673Z,1002.85
2018-02-08T11:07:00.268Z,1002.83
2018-02-08T11:08:06.364Z,1002.81
2018-02-08T11:09:12.923Z,1002.81
2018-02-08T11:10:19.000Z,1002.80
2018-02-08T11:11:24.582Z,1002.78
2018-02-08T11:12:31.197Z,1002.76
2018-02-08T11:13:36.770Z,1002.80
2018-02-08T11:14:43.343Z,1002.76
2018-02-08T11:15:48.959Z,1002.78
2018-02-08T11:16:55.045Z,1002.77
2018-02-08T11:18:01.659Z,1002.70
2018-02-08T11:19:07.240Z,1002.73
2018-02-08T11:20:13.337Z,1002.70
2018-02-08T11:21:19.506Z,1002.72
2018-02-08T11:22:25.567Z,1002.71
2018-02-08T11:23:31.641Z,1002.74
2018-02-08T11:24:37.762Z,1002.72
2018-02-08T11:25:43.863Z,1002.70
2018-02-08T11:26:49.948Z,1002.69
2018-02-08T11:27:56.564Z,1002.73
2018-02-08T11:29:02.156Z,1002.74
2018-02-08T11:30:08.758Z,1002.76
2018-02-08T11:31:14.354Z,1002.73
2018-02-08T11:32:20.472Z,1002.77
2018-02-08T11:33:26.592Z,1002.76
2018-02-08T11:34:32.668Z,1002.76
2018-02-08T11:35:38.784Z,1002.77
2018-02-08T11:36:44.889Z,1002.74
2018-02-08T11:37:51.037Z,1002.76
2018-02-08T11:38:57.604Z,1002.74
2018-02-08T11:40:03.215Z,1002.73
2018-02-08T11:41:09.826Z,1002.71
2018-02-08T11:42:15.432Z,1002.72
2018-02-08T11:43:22.076Z,1002.75
2018-02-08T11:44:27.670Z,1002.76
2018-02-08T11:45:34.284Z,1002.74
2018-02-08T11:46:39.888Z,1002.76
2018-02-08T11:47:46.002Z,1002.75
2018-02-08T11:48:52.146Z,1002.75
2018-02-08T11:49:58.750Z,1002.76
2018-02-08T11:51:04.358Z,1002.76
2018-02-08T11:52:10.973Z,1002.72
2018-02-08T11:53:16.616Z,1002.73
2018-02-08T11:54:23.264Z,1002.71
2018-02-08T11:55:28.858Z,1002.69
2018-02-08T11:56:35.031Z,1002.71
2018-02-08T11:57:41.604Z,1002.73
2018-02-08T11:58:47.742Z,1002.75
2018-02-08T11:59:53.907Z,1002.69
2018-02-08T12:01:00.126Z,1002.73
2018-02-08T12:02:05.724Z,1002.62
2018-02-08T12:04:24.058Z,1002.63
2018-02-08T12:05:34.533Z,1002.66
2018-02-08T12:06:47.369Z,1002.65
2018-02-08T12:07:55.791Z,1002.67
2018-02-08T12:10:14.126Z,1002.63
2018-02-08T12:11:26.412Z,1002.66
2018-02-08T12:12:34.855Z,1002.62
2018-02-08T12:15:53.688Z,1002.56
2018-02-08T12:17:00.376Z,1002.50
2018-02-08T12:18:06.702Z,1002.48
2018-02-08T12:19:12.903Z,1002.44
2018-02-08T12:20:19.205Z,1002.52
2018-02-08T12:21:25.552Z,1002.45
2018-02-08T12:22:31.660Z,1002.44
2018-02-08T12:23:37.896Z,1002.50
2018-02-08T12:24:44.137Z,1002.46
2018-02-08T12:25:50.449Z,1002.47
2018-02-08T12:26:56.737Z,1002.48
2018-02-08T12:28:02.919Z,1002.42
2018-02-08T12:29:08.681Z,1002.51
2018-02-08T12:30:15.480Z,1002.46
2018-02-08T12:31:21.794Z,1002.53
2018-02-08T12:32:27.978Z,1002.45
2018-02-08T12:33:34.256Z,1002.46
2018-02-08T12:34:40.520Z,1002.47
2018-02-08T12:35:46.779Z,1002.41
2018-02-08T12:36:53.071Z,1002.35
2018-02-08T12:38:00.296Z,1002.35
2018-02-08T12:39:05.654Z,1002.34
2018-02-08T12:40:11.949Z,1002.33
2018-02-08T12:41:17.648Z,1002.30
2018-02-08T12:42:24.465Z,1002.27
2018-02-08T12:43:30.798Z,1002.22
2018-02-08T12:44:36.496Z,1002.24
2018-02-08T12:45:43.276Z,1002.26
2018-02-08T12:46:49.602Z,1002.21
2018-02-08T12:47:55.878Z,1002.22
2018-02-08T12:49:02.259Z,1002.15
2018-02-08T12:50:08.485Z,1002.13
2018-02-08T12:51:14.862Z,1002.18
2018-02-08T12:52:21.180Z,1002.14
2018-02-08T12:53:27.442Z,1002.18
2018-02-08T12:54:33.783Z,1002.12
2018-02-08T12:55:40.079Z,1002.14
2018-02-08T12:56:46.432Z,1002.16
2018-02-08T12:57:52.720Z,1002.11
2018-02-08T12:58:59.030Z,1002.11
2018-02-08T13:00:05.353Z,1002.16
2018-02-08T13:01:11.741Z,1002.10
2018-02-08T13:02:18.058Z,1002.13
2018-02-08T13:03:24.364Z,1002.12
2018-02-08T13:04:30.705Z,1002.11
2018-02-08T13:05:36.547Z,1002.13
2018-02-08T13:06:43.364Z,1002.11
2018-02-08T13:07:49.633Z,1002.12
2018-02-08T13:08:56.049Z,1002.09
2018-02-08T13:10:02.309Z,1002.09
2018-02-08T13:11:08.663Z,1002.08
2018-02-08T13:12:14.505Z,1002.03
2018-02-08T13:13:21.325Z,1002.01
2018-02-08T13:14:27.604Z,1002.06
2018-02-08T13:15:33.954Z,1002.05
2018-02-08T13:16:40.293Z,1002.05
2018-02-08T13:17:46.652Z,1001.99
2018-02-08T13:18:52.973Z,1002.06
2018-02-08T13:19:59.300Z,1002.01
2018-02-08T13:21:05.752Z,1001.99
2018-02-08T13:22:11.985Z,1001.99
2018-02-08T13:23:18.382Z,1001.93
2018-02-08T13:24:24.698Z,1001.97
2018-02-08T13:25:31.091Z,1001.98